createdAt,value
2023-05-01T00:00:23.652Z,524.00
2023-05-01T00:01:23.707Z,524.00
2023-05-01T00:02:23.804Z,526.00
2023-05-01T00:03:23.895Z,526.00
2023-05-01T00:04:23.891Z,523.00
2023-05-01T00:05:23.904Z,523.00
2023-05-01T00:06:23.978Z,522.00
2023-05-01T00:07:23.990Z,520.00
2023-05-01T00:08:24.007Z,522.00
2023-05-01T00:09:24.050Z,521.00
2023-05-01T00:10:24.091Z,522.00
2023-05-01T00:11:24.132Z,521.00
2023-05-01T00:12:24.179Z,520.00
2023-05-01T00:13:24.235Z,521.00
2023-05-01T00:14:24.256Z,519.00
2023-05-01T00:15:24.316Z,525.00
2023-05-01T00:16:24.370Z,521.00
2023-05-01T00:17:24.422Z,522.00
2023-05-01T00:18:24.444Z,521.00
2023-05-01T00:19:24.491Z,520.00
2023-05-01T00:20:24.558Z,524.00
2023-05-01T00:21:24.586Z,523.00
2023-05-01T00:22:24.783Z,525.00
2023-05-01T00:23:24.677Z,522.00
2023-05-01T00:24:24.720Z,521.00
2023-05-01T00:25:24.769Z,523.00
2023-05-01T00:26:24.812Z,523.00
2023-05-01T00:27:24.865Z,524.00
2023-05-01T00:28:24.953Z,524.00
2023-05-01T00:29:25.101Z,523.00
2023-05-01T00:30:25.965Z,523.00
2023-05-01T00:31:25.036Z,523.00
2023-05-01T00:32:25.092Z,522.00
2023-05-01T00:33:25.104Z,523.00
2023-05-01T00:34:25.188Z,522.00
2023-05-01T00:35:25.199Z,526.00
2023-05-01T00:36:25.227Z,522.00
2023-05-01T00:37:25.295Z,523.00
2023-05-01T00:38:25.969Z,524.00
2023-05-01T00:39:25.371Z,523.00
2023-05-01T00:40:25.418Z,521.00
2023-05-01T00:41:25.460Z,523.00
2023-05-01T00:42:25.519Z,522.00
2023-05-01T00:43:25.538Z,521.00
2023-05-01T00:44:25.572Z,521.00
2023-05-01T00:45:25.614Z,521.00
2023-05-01T00:46:25.786Z,522.00
2023-05-01T00:47:25.740Z,523.00
2023-05-01T00:48:25.737Z,523.00
2023-05-01T00:49:25.775Z,521.00
2023-05-01T00:50:25.822Z,522.00
2023-05-01T00:51:25.855Z,520.00
2023-05-01T00:52:25.891Z,522.00
2023-05-01T00:53:25.932Z,520.00
2023-05-01T00:54:25.974Z,522.00
2023-05-01T00:55:26.017Z,523.00
2023-05-01T00:56:26.060Z,522.00
2023-05-01T00:57:26.109Z,520.00
2023-05-01T00:58:26.138Z,524.00
2023-05-01T00:59:26.177Z,521.00
2023-05-01T01:00:26.221Z,521.00
2023-05-01T01:01:26.275Z,523.00
2023-05-01T01:02:26.322Z,523.00
2023-05-01T01:03:26.346Z,524.00
2023-05-01T01:04:26.411Z,522.00
2023-05-01T01:05:26.481Z,520.00
2023-05-01T01:06:26.444Z,521.00
2023-05-01T01:07:26.445Z,523.00
2023-05-01T01:08:26.476Z,523.00
2023-05-01T01:09:26.495Z,522.00
2023-05-01T01:10:26.525Z,526.00
2023-05-01T01:11:26.547Z,523.00
2023-05-01T01:12:26.584Z,520.00
2023-05-01T01:13:26.660Z,519.00
2023-05-01T01:14:26.622Z,524.00
2023-05-01T01:15:26.645Z,523.00
2023-05-01T01:16:26.715Z,523.00
2023-05-01T01:17:26.731Z,524.00
2023-05-01T01:18:26.747Z,525.00
2023-05-01T01:19:26.741Z,524.00
2023-05-01T01:20:26.771Z,521.00
2023-05-01T01:21:26.795Z,521.00
2023-05-01T01:22:26.843Z,522.00
2023-05-01T01:23:26.834Z,523.00
2023-05-01T01:24:26.858Z,518.00
2023-05-01T01:25:26.880Z,522.00
2023-05-01T01:26:26.907Z,525.00
2023-05-01T01:27:26.941Z,521.00
2023-05-01T01:28:26.965Z,523.00
2023-05-01T01:29:27.007Z,521.00
2023-05-01T01:30:27.043Z,525.00
2023-05-01T01:31:27.142Z,521.00
2023-05-01T01:32:27.136Z,523.00
2023-05-01T01:33:27.125Z,524.00
2023-05-01T01:34:27.167Z,522.00
2023-05-01T01:35:27.183Z,523.00
2023-05-01T01:36:27.201Z,522.00
2023-05-01T01:37:27.243Z,523.00
2023-05-01T01:38:27.264Z,524.00
2023-05-01T01:39:27.300Z,524.00
2023-05-01T01:40:27.370Z,524.00
2023-05-01T01:41:27.362Z,523.00
2023-05-01T01:42:27.397Z,523.00
2023-05-01T01:43:27.430Z,524.00
2023-05-01T01:44:27.458Z,525.00
2023-05-01T01:45:27.968Z,522.00
2023-05-01T01:46:27.639Z,526.00
2023-05-01T01:47:27.576Z,522.00
2023-05-01T01:48:27.588Z,524.00
2023-05-01T01:49:27.609Z,526.00
2023-05-01T01:50:27.712Z,522.00
2023-05-01T01:51:27.674Z,524.00
2023-05-01T01:52:27.716Z,524.00
2023-05-01T01:53:27.838Z,522.00
2023-05-01T01:54:27.771Z,523.00
2023-05-01T01:55:27.845Z,524.00
2023-05-01T01:56:27.841Z,526.00
2023-05-01T01:57:27.970Z,523.00
2023-05-01T01:58:27.968Z,524.00
2023-05-01T01:59:27.943Z,524.00
2023-05-01T02:00:27.980Z,522.00
2023-05-01T02:01:28.053Z,526.00
2023-05-01T02:02:28.207Z,527.00
2023-05-01T02:03:28.191Z,522.00
2023-05-01T02:04:28.177Z,523.00
2023-05-01T02:05:28.154Z,521.00
2023-05-01T02:06:28.274Z,523.00
2023-05-01T02:07:28.203Z,526.00
2023-05-01T02:08:28.226Z,523.00
2023-05-01T02:09:28.260Z,527.00
2023-05-01T02:10:28.296Z,522.00
2023-05-01T02:11:28.325Z,522.00
2023-05-01T02:12:28.372Z,521.00
2023-05-01T02:13:28.542Z,522.00
2023-05-01T02:14:28.427Z,523.00
2023-05-01T02:15:28.481Z,524.00
2023-05-01T02:16:28.569Z,524.00
2023-05-01T02:17:28.711Z,526.00
2023-05-01T02:18:28.562Z,526.00
2023-05-01T02:19:28.584Z,527.00
2023-05-01T02:20:28.616Z,523.00
2023-05-01T02:21:28.659Z,520.00
2023-05-01T02:22:28.688Z,523.00
2023-05-01T02:23:28.725Z,525.00
2023-05-01T02:24:28.744Z,523.00
2023-05-01T02:25:29.610Z,523.00
2023-05-01T02:26:28.804Z,525.00
2023-05-01T02:27:28.846Z,524.00
2023-05-01T02:28:28.871Z,522.00
2023-05-01T02:29:28.964Z,522.00
2023-05-01T02:30:28.956Z,522.00
2023-05-01T02:31:29.064Z,525.00
2023-05-01T02:32:29.037Z,520.00
2023-05-01T02:33:29.031Z,524.00
2023-05-01T02:34:29.144Z,525.00
2023-05-01T02:35:29.087Z,524.00
2023-05-01T02:36:29.118Z,521.00
2023-05-01T02:37:29.973Z,524.00
2023-05-01T02:38:29.276Z,525.00
2023-05-01T02:39:29.210Z,523.00
2023-05-01T02:40:29.235Z,526.00
2023-05-01T02:41:29.275Z,526.00
2023-05-01T02:42:29.309Z,526.00
2023-05-01T02:43:29.348Z,526.00
2023-05-01T02:44:29.419Z,524.00
2023-05-01T02:45:29.415Z,525.00
2023-05-01T02:46:29.516Z,524.00
2023-05-01T02:47:29.481Z,522.00
2023-05-01T02:48:29.492Z,524.00
2023-05-01T02:49:29.536Z,523.00
2023-05-01T02:50:29.564Z,525.00
2023-05-01T02:51:29.600Z,525.00
2023-05-01T02:52:29.630Z,524.00
2023-05-01T02:53:30.470Z,525.00
2023-05-01T02:54:29.688Z,523.00
2023-05-01T02:55:29.733Z,523.00
2023-05-01T02:56:29.780Z,525.00
2023-05-01T02:57:29.784Z,525.00
2023-05-01T02:58:30.479Z,523.00
2023-05-01T02:59:29.912Z,522.00
2023-05-01T03:00:29.867Z,523.00
2023-05-01T03:01:29.994Z,526.00
2023-05-01T03:02:29.927Z,524.00
2023-05-01T03:03:29.964Z,524.00
2023-05-01T03:04:30.049Z,525.00
2023-05-01T03:05:30.018Z,523.00
2023-05-01T03:06:30.117Z,523.00
2023-05-01T03:07:30.154Z,526.00
2023-05-01T03:08:30.116Z,524.00
2023-05-01T03:09:30.156Z,523.00
2023-05-01T03:10:30.179Z,523.00
2023-05-01T03:11:30.212Z,523.00
2023-05-01T03:12:30.249Z,525.00
2023-05-01T03:13:30.284Z,522.00
2023-05-01T03:14:30.310Z,521.00
2023-05-01T03:15:30.343Z,522.00
2023-05-01T03:16:30.521Z,522.00
2023-05-01T03:17:30.516Z,525.00
2023-05-01T03:18:30.456Z,525.00
2023-05-01T03:19:30.478Z,526.00
2023-05-01T03:20:30.516Z,526.00
2023-05-01T03:21:30.552Z,525.00
2023-05-01T03:22:30.574Z,524.00
2023-05-01T03:23:30.670Z,525.00
2023-05-01T03:24:30.666Z,526.00
2023-05-01T03:25:30.697Z,523.00
2023-05-01T03:26:30.724Z,525.00
2023-05-01T03:27:30.782Z,525.00
2023-05-01T03:28:30.797Z,525.00
2023-05-01T03:29:30.832Z,523.00
2023-05-01T03:30:30.978Z,524.00
2023-05-01T03:31:30.964Z,525.00
2023-05-01T03:32:30.976Z,525.00
2023-05-01T03:33:30.971Z,523.00
2023-05-01T03:34:31.018Z,523.00
2023-05-01T03:35:31.156Z,524.00
2023-05-01T03:36:31.065Z,523.00
2023-05-01T03:37:31.184Z,524.00
2023-05-01T03:38:31.140Z,525.00
2023-05-01T03:39:31.227Z,523.00
2023-05-01T03:40:31.215Z,522.00
2023-05-01T03:41:31.236Z,521.00
2023-05-01T03:42:31.296Z,523.00
2023-05-01T03:43:31.320Z,524.00
2023-05-01T03:44:31.375Z,526.00
2023-05-01T03:45:31.392Z,522.00
2023-05-01T03:46:31.488Z,522.00
2023-05-01T03:47:31.495Z,522.00
2023-05-01T03:48:31.576Z,523.00
2023-05-01T03:49:31.604Z,523.00
2023-05-01T03:50:31.582Z,522.00
2023-05-01T03:51:31.603Z,521.00
2023-05-01T03:52:31.651Z,521.00
2023-05-01T03:53:31.691Z,520.00
2023-05-01T03:54:31.808Z,522.00
2023-05-01T03:55:31.767Z,521.00
2023-05-01T03:56:31.812Z,520.00
2023-05-01T03:57:31.853Z,523.00
2023-05-01T03:58:31.890Z,523.00
2023-05-01T03:59:31.916Z,522.00
2023-05-01T04:00:31.959Z,522.00
2023-05-01T04:01:31.993Z,523.00
2023-05-01T04:02:32.558Z,518.00
2023-05-01T04:03:32.187Z,521.00
2023-05-01T04:04:32.157Z,523.00
2023-05-01T04:05:32.133Z,525.00
2023-05-01T04:06:32.285Z,522.00
2023-05-01T04:07:32.212Z,524.00
2023-05-01T04:08:32.516Z,522.00
2023-05-01T04:09:32.358Z,523.00
2023-05-01T04:10:32.322Z,521.00
2023-05-01T04:11:32.365Z,521.00
2023-05-01T04:12:32.445Z,524.00
2023-05-01T04:13:32.497Z,524.00
2023-05-01T04:14:32.452Z,519.00
2023-05-01T04:15:32.505Z,524.00
2023-05-01T04:16:32.566Z,525.00
2023-05-01T04:17:32.660Z,521.00
2023-05-01T04:18:32.607Z,520.00
2023-05-01T04:19:32.669Z,522.00
2023-05-01T04:20:32.666Z,522.00
2023-05-01T04:21:32.695Z,522.00
2023-05-01T04:22:32.722Z,521.00
2023-05-01T04:23:32.762Z,520.00
2023-05-01T04:24:32.824Z,525.00
2023-05-01T04:25:32.851Z,521.00
2023-05-01T04:26:32.881Z,521.00
2023-05-01T04:27:32.917Z,523.00
2023-05-01T04:28:32.950Z,525.00
2023-05-01T04:29:32.981Z,524.00
2023-05-01T04:30:33.085Z,523.00
2023-05-01T04:31:33.190Z,522.00
2023-05-01T04:32:33.156Z,521.00
2023-05-01T04:33:33.145Z,522.00
2023-05-01T04:34:33.188Z,523.00
2023-05-01T04:35:33.973Z,523.00
2023-05-01T04:36:33.252Z,522.00
2023-05-01T04:37:33.295Z,521.00
2023-05-01T04:38:33.323Z,525.00
2023-05-01T04:39:33.344Z,524.00
2023-05-01T04:40:33.396Z,520.00
2023-05-01T04:41:33.433Z,522.00
2023-05-01T04:42:33.471Z,523.00
2023-05-01T04:43:33.510Z,525.00
2023-05-01T04:44:33.555Z,526.00
2023-05-01T04:45:33.587Z,521.00
2023-05-01T04:46:33.658Z,523.00
2023-05-01T04:47:33.698Z,519.00
2023-05-01T04:48:33.771Z,522.00
2023-05-01T04:49:33.751Z,520.00
2023-05-01T04:50:33.790Z,522.00
2023-05-01T04:51:33.817Z,526.00
2023-05-01T04:52:33.851Z,523.00
2023-05-01T04:53:33.897Z,521.00
2023-05-01T04:54:33.927Z,520.00
2023-05-01T04:55:33.977Z,523.00
2023-05-01T04:56:34.018Z,520.00
2023-05-01T04:57:34.050Z,520.00
2023-05-01T04:58:34.094Z,521.00
2023-05-01T04:59:34.143Z,520.00
2023-05-01T05:00:34.168Z,520.00
2023-05-01T05:01:34.259Z,524.00
2023-05-01T05:02:34.297Z,523.00
2023-05-01T05:03:34.418Z,522.00
2023-05-01T05:04:34.314Z,520.00
2023-05-01T05:05:34.360Z,521.00
2023-05-01T05:06:34.434Z,525.00
2023-05-01T05:07:34.440Z,524.00
2023-05-01T05:08:34.475Z,522.00
2023-05-01T05:09:34.519Z,523.00
2023-05-01T05:10:34.561Z,523.00
2023-05-01T05:11:34.605Z,522.00
2023-05-01T05:12:35.484Z,517.00
2023-05-01T05:13:34.685Z,519.00
2023-05-01T05:14:34.740Z,519.00
2023-05-01T05:15:34.773Z,522.00
2023-05-01T05:16:34.854Z,520.00
2023-05-01T05:17:34.865Z,520.00
2023-05-01T05:18:34.954Z,520.00
2023-05-01T05:19:34.933Z,519.00
2023-05-01T05:20:34.978Z,520.00
2023-05-01T05:21:35.024Z,521.00
2023-05-01T05:22:35.061Z,522.00
2023-05-01T05:23:35.102Z,520.00
2023-05-01T05:24:35.132Z,516.00
2023-05-01T05:25:35.273Z,522.00
2023-05-01T05:26:35.201Z,517.00
2023-05-01T05:27:35.243Z,520.00
2023-05-01T05:28:35.332Z,521.00
2023-05-01T05:29:35.311Z,520.00
2023-05-01T05:30:35.381Z,520.00
2023-05-01T05:31:35.431Z,517.00
2023-05-01T05:32:35.484Z,519.00
2023-05-01T05:33:35.451Z,520.00
2023-05-01T05:34:35.494Z,522.00
2023-05-01T05:35:35.522Z,518.00
2023-05-01T05:36:35.568Z,519.00
2023-05-01T05:37:35.596Z,520.00
2023-05-01T05:38:35.630Z,519.00
2023-05-01T05:39:35.667Z,520.00
2023-05-01T05:40:36.487Z,518.00
2023-05-01T05:41:35.748Z,520.00
2023-05-01T05:42:35.790Z,519.00
2023-05-01T05:43:35.850Z,518.00
2023-05-01T05:44:35.869Z,524.00
2023-05-01T05:45:35.985Z,520.00
2023-05-01T05:46:35.995Z,518.00
2023-05-01T05:47:35.984Z,516.00
2023-05-01T05:48:36.028Z,521.00
2023-05-01T05:49:36.123Z,516.00
2023-05-01T05:50:36.098Z,518.00
2023-05-01T05:51:36.200Z,518.00
2023-05-01T05:52:36.174Z,515.00
2023-05-01T05:53:36.216Z,520.00
2023-05-01T05:54:36.245Z,518.00
2023-05-01T05:55:36.309Z,518.00
2023-05-01T05:56:36.424Z,517.00
2023-05-01T05:57:36.369Z,515.00
2023-05-01T05:58:36.395Z,519.00
2023-05-01T05:59:36.434Z,519.00
2023-05-01T06:00:36.480Z,519.00
2023-05-01T06:01:36.506Z,519.00
2023-05-01T06:02:36.636Z,519.00
2023-05-01T06:03:36.672Z,515.00
2023-05-01T06:04:36.618Z,518.00
2023-05-01T06:05:36.704Z,515.00
2023-05-01T06:06:36.754Z,520.00
2023-05-01T06:07:36.737Z,517.00
2023-05-01T06:08:36.762Z,517.00
2023-05-01T06:09:36.807Z,517.00
2023-05-01T06:10:36.842Z,516.00
2023-05-01T06:11:36.877Z,519.00
2023-05-01T06:12:38.624Z,518.00
2023-05-01T06:13:37.894Z,519.00
2023-05-01T06:14:36.873Z,519.00
2023-05-01T06:15:36.885Z,519.00
2023-05-01T06:16:36.941Z,519.00
2023-05-01T06:17:36.870Z,518.00
2023-05-01T06:18:36.833Z,519.00
2023-05-01T06:19:36.809Z,518.00
2023-05-01T06:20:36.793Z,518.00
2023-05-01T06:21:36.780Z,517.00
2023-05-01T06:22:36.774Z,518.00
2023-05-01T06:23:36.747Z,518.00
2023-05-01T06:24:36.783Z,517.00
2023-05-01T06:25:36.736Z,517.00
2023-05-01T06:26:36.772Z,518.00
2023-05-01T06:27:36.809Z,515.00
2023-05-01T06:28:36.842Z,518.00
2023-05-01T06:29:36.886Z,518.00
2023-05-01T06:30:36.926Z,519.00
2023-05-01T06:31:37.012Z,519.00
2023-05-01T06:32:37.080Z,515.00
2023-05-01T06:33:37.027Z,517.00
2023-05-01T06:34:37.073Z,511.00
2023-05-01T06:35:37.111Z,514.00
2023-05-01T06:36:37.139Z,517.00
2023-05-01T06:37:37.187Z,518.00
2023-05-01T06:38:37.211Z,519.00
2023-05-01T06:39:37.248Z,511.00
2023-05-01T06:40:37.299Z,517.00
2023-05-01T06:41:37.307Z,515.00
2023-05-01T06:42:37.346Z,517.00
2023-05-01T06:43:37.394Z,517.00
2023-05-01T06:44:37.491Z,517.00
2023-05-01T06:45:37.447Z,516.00
2023-05-01T06:46:37.538Z,518.00
2023-05-01T06:47:37.516Z,513.00
2023-05-01T06:48:37.563Z,517.00
2023-05-01T06:49:37.569Z,516.00
2023-05-01T06:50:37.603Z,515.00
2023-05-01T06:51:37.647Z,515.00
2023-05-01T06:52:37.676Z,515.00
2023-05-01T06:53:37.698Z,514.00
2023-05-01T06:54:37.735Z,516.00
2023-05-01T06:55:37.762Z,516.00
2023-05-01T06:56:37.879Z,517.00
2023-05-01T06:57:37.849Z,515.00
2023-05-01T06:58:37.869Z,515.00
2023-05-01T06:59:37.909Z,516.00
2023-05-01T07:00:37.973Z,515.00
2023-05-01T07:01:38.039Z,515.00
2023-05-01T07:02:38.204Z,517.00
2023-05-01T07:03:38.099Z,514.00
2023-05-01T07:04:38.076Z,511.00
2023-05-01T07:05:38.111Z,513.00
2023-05-01T07:06:38.184Z,517.00
2023-05-01T07:07:42.309Z,513.00
2023-05-01T07:08:39.176Z,514.00
2023-05-01T07:09:38.167Z,514.00
2023-05-01T07:10:40.441Z,515.00
2023-05-01T07:11:38.143Z,514.00
2023-05-01T07:12:38.127Z,514.00
2023-05-01T07:13:38.118Z,516.00
2023-05-01T07:14:38.105Z,517.00
2023-05-01T07:15:38.078Z,517.00
2023-05-01T07:16:38.141Z,516.00
2023-05-01T07:17:38.989Z,516.00
2023-05-01T07:18:38.044Z,516.00
2023-05-01T07:19:38.014Z,516.00
2023-05-01T07:20:37.983Z,516.00
2023-05-01T07:21:37.976Z,515.00
2023-05-01T07:22:37.966Z,516.00
2023-05-01T07:23:37.953Z,517.00
2023-05-01T07:24:37.922Z,514.00
2023-05-01T07:25:37.914Z,516.00
2023-05-01T07:26:37.910Z,510.00
2023-05-01T07:27:37.882Z,514.00
2023-05-01T07:28:37.870Z,514.00
2023-05-01T07:29:37.854Z,518.00
2023-05-01T07:30:37.872Z,516.00
2023-05-01T07:31:37.958Z,516.00
2023-05-01T07:32:37.873Z,517.00
2023-05-01T07:33:37.788Z,513.00
2023-05-01T07:34:37.776Z,514.00
2023-05-01T07:35:37.759Z,511.00
2023-05-01T07:36:37.733Z,517.00
2023-05-01T07:37:37.716Z,512.00
2023-05-01T07:38:37.696Z,515.00
2023-05-01T07:39:37.683Z,515.00
2023-05-01T07:40:37.675Z,514.00
2023-05-01T07:41:37.646Z,514.00
2023-05-01T07:42:37.640Z,518.00
2023-05-01T07:43:37.627Z,518.00
2023-05-01T07:44:37.623Z,515.00
2023-05-01T07:45:37.676Z,515.00
2023-05-01T07:46:37.839Z,515.00
2023-05-01T07:47:37.671Z,515.00
2023-05-01T07:48:38.956Z,514.00
2023-05-01T07:49:37.671Z,521.00
2023-05-01T07:50:37.701Z,516.00
2023-05-01T07:51:37.746Z,513.00
2023-05-01T07:52:37.781Z,515.00
2023-05-01T07:53:37.818Z,512.00
2023-05-01T07:54:37.849Z,514.00
2023-05-01T07:55:37.893Z,513.00
2023-05-01T07:56:37.919Z,514.00
2023-05-01T07:57:37.964Z,516.00
2023-05-01T07:58:38.060Z,512.00
2023-05-01T07:59:38.022Z,514.00
2023-05-01T08:00:38.124Z,511.00
2023-05-01T08:01:38.083Z,516.00
2023-05-01T08:02:38.231Z,513.00
2023-05-01T08:03:38.217Z,513.00
2023-05-01T08:04:38.216Z,514.00
2023-05-01T08:05:38.198Z,519.00
2023-05-01T08:06:38.370Z,515.00
2023-05-01T08:07:38.301Z,513.00
2023-05-01T08:08:38.300Z,514.00
2023-05-01T08:09:38.323Z,517.00
2023-05-01T08:10:38.361Z,518.00
2023-05-01T08:11:38.406Z,518.00
2023-05-01T08:12:38.448Z,515.00
2023-05-01T08:13:38.537Z,518.00
2023-05-01T08:14:38.490Z,516.00
2023-05-01T08:15:38.612Z,515.00
2023-05-01T08:16:39.045Z,514.00
2023-05-01T08:17:38.726Z,513.00
2023-05-01T08:18:38.615Z,515.00
2023-05-01T08:19:38.642Z,515.00
2023-05-01T08:20:38.686Z,515.00
2023-05-01T08:21:38.692Z,515.00
2023-05-01T08:22:38.718Z,516.00
2023-05-01T08:23:38.748Z,516.00
2023-05-01T08:24:38.773Z,515.00
2023-05-01T08:25:38.804Z,517.00
2023-05-01T08:26:38.842Z,515.00
2023-05-01T08:27:38.875Z,516.00
2023-05-01T08:28:38.902Z,518.00
2023-05-01T08:29:38.933Z,513.00
2023-05-01T08:30:38.960Z,517.00
2023-05-01T08:31:39.046Z,517.00
2023-05-01T08:32:39.056Z,514.00
2023-05-01T08:33:39.052Z,515.00
2023-05-01T08:34:40.003Z,515.00
2023-05-01T08:35:39.116Z,515.00
2023-05-01T08:36:39.147Z,516.00
2023-05-01T08:37:39.182Z,514.00
2023-05-01T08:38:39.208Z,515.00
2023-05-01T08:39:39.235Z,515.00
2023-05-01T08:40:39.255Z,518.00
2023-05-01T08:41:39.277Z,519.00
2023-05-01T08:42:39.377Z,517.00
2023-05-01T08:43:39.306Z,513.00
2023-05-01T08:44:39.349Z,513.00
2023-05-01T08:45:39.363Z,517.00
2023-05-01T08:46:39.433Z,512.00
2023-05-01T08:47:39.490Z,514.00
2023-05-01T08:48:39.441Z,514.00
2023-05-01T08:49:39.462Z,513.00
2023-05-01T08:50:39.514Z,515.00
2023-05-01T08:51:39.520Z,513.00
2023-05-01T08:52:39.553Z,515.00
2023-05-01T08:53:39.574Z,513.00
2023-05-01T08:54:39.657Z,515.00
2023-05-01T08:55:39.625Z,511.00
2023-05-01T08:56:39.665Z,513.00
2023-05-01T08:57:39.995Z,514.00
2023-05-01T08:58:39.731Z,515.00
2023-05-01T08:59:39.773Z,514.00
2023-05-01T09:00:39.789Z,514.00
2023-05-01T09:01:39.877Z,518.00
2023-05-01T09:02:39.844Z,518.00
2023-05-01T09:03:40.008Z,514.00
2023-05-01T09:04:40.022Z,517.00
2023-05-01T09:05:39.915Z,513.00
2023-05-01T09:06:40.586Z,515.00
2023-05-01T09:07:39.988Z,512.00
2023-05-01T09:08:39.994Z,514.00
2023-05-01T09:09:40.013Z,515.00
2023-05-01T09:10:40.041Z,515.00
2023-05-01T09:11:40.068Z,518.00
2023-05-01T09:12:40.104Z,516.00
2023-05-01T09:13:40.113Z,514.00
2023-05-01T09:14:40.149Z,515.00
2023-05-01T09:15:40.173Z,516.00
2023-05-01T09:16:40.221Z,516.00
2023-05-01T09:17:40.242Z,516.00
2023-05-01T09:18:40.238Z,513.00
2023-05-01T09:19:40.249Z,518.00
2023-05-01T09:20:40.328Z,515.00
2023-05-01T09:21:40.298Z,514.00
2023-05-01T09:22:40.322Z,513.00
2023-05-01T09:23:40.353Z,519.00
2023-05-01T09:24:40.368Z,516.00
2023-05-01T09:25:40.394Z,517.00
2023-05-01T09:26:40.410Z,517.00
2023-05-01T09:27:40.437Z,518.00
2023-05-01T09:28:40.465Z,518.00
2023-05-01T09:29:40.480Z,515.00
2023-05-01T09:30:40.514Z,517.00
2023-05-01T09:31:40.580Z,517.00
2023-05-01T09:32:42.476Z,517.00
2023-05-01T09:33:40.581Z,519.00
2023-05-01T09:34:40.616Z,518.00
2023-05-01T09:35:40.720Z,519.00
2023-05-01T09:36:40.667Z,517.00
2023-05-01T09:37:40.703Z,517.00
2023-05-01T09:38:40.709Z,513.00
2023-05-01T09:39:40.741Z,516.00
2023-05-01T09:40:40.759Z,519.00
2023-05-01T09:41:40.790Z,520.00
2023-05-01T09:42:40.999Z,516.00
2023-05-01T09:43:40.918Z,520.00
2023-05-01T09:44:40.868Z,515.00
2023-05-01T09:45:41.003Z,515.00
2023-05-01T09:46:40.984Z,516.00
2023-05-01T09:47:41.010Z,518.00
2023-05-01T09:48:40.973Z,517.00
2023-05-01T09:49:40.992Z,518.00
2023-05-01T09:50:41.068Z,518.00
2023-05-01T09:51:41.051Z,519.00
2023-05-01T09:52:41.071Z,517.00
2023-05-01T09:53:41.130Z,515.00
2023-05-01T09:54:41.116Z,516.00
2023-05-01T09:55:41.127Z,516.00
2023-05-01T09:56:41.158Z,519.00
2023-05-01T09:57:41.190Z,519.00
2023-05-01T09:58:41.209Z,519.00
2023-05-01T09:59:41.232Z,521.00
2023-05-01T10:00:41.275Z,515.00
2023-05-01T10:01:41.429Z,518.00
2023-05-01T10:02:41.338Z,521.00
2023-05-01T10:03:41.581Z,518.00
2023-05-01T10:04:41.334Z,520.00
2023-05-01T10:05:41.990Z,518.00
2023-05-01T10:06:41.446Z,517.00
2023-05-01T10:07:41.410Z,516.00
2023-05-01T10:08:41.501Z,518.00
2023-05-01T10:09:41.508Z,520.00
2023-05-01T10:10:41.468Z,519.00
2023-05-01T10:11:41.488Z,522.00
2023-05-01T10:12:41.514Z,520.00
2023-05-01T10:13:41.534Z,518.00
2023-05-01T10:14:41.550Z,522.00
2023-05-01T10:15:41.573Z,521.00
2023-05-01T10:16:41.673Z,519.00
2023-05-01T10:17:41.688Z,522.00
2023-05-01T10:18:41.628Z,520.00
2023-05-01T10:19:41.649Z,519.00
2023-05-01T10:20:41.668Z,518.00
2023-05-01T10:21:41.692Z,519.00
2023-05-01T10:22:41.700Z,519.00
2023-05-01T10:23:41.706Z,519.00
2023-05-01T10:24:42.494Z,520.00
2023-05-01T10:25:41.743Z,519.00
2023-05-01T10:26:41.776Z,519.00
2023-05-01T10:27:41.788Z,518.00
2023-05-01T10:28:41.831Z,519.00
2023-05-01T10:29:41.812Z,518.00
2023-05-01T10:30:41.832Z,516.00
2023-05-01T10:31:42.613Z,517.00
2023-05-01T10:32:41.998Z,520.00
2023-05-01T10:33:41.888Z,519.00
2023-05-01T10:34:41.901Z,518.00
2023-05-01T10:35:41.913Z,518.00
2023-05-01T10:36:41.927Z,516.00
2023-05-01T10:37:41.983Z,516.00
2023-05-01T10:38:42.013Z,517.00
2023-05-01T10:39:42.487Z,517.00
2023-05-01T10:40:42.100Z,514.00
2023-05-01T10:41:42.005Z,517.00
2023-05-01T10:42:42.020Z,517.00
2023-05-01T10:43:42.032Z,513.00
2023-05-01T10:44:42.055Z,517.00
2023-05-01T10:45:42.063Z,521.00
2023-05-01T10:46:42.210Z,516.00
2023-05-01T10:47:42.196Z,519.00
2023-05-01T10:48:42.096Z,514.00
2023-05-01T10:49:42.179Z,515.00
2023-05-01T10:50:42.128Z,520.00
2023-05-01T10:51:42.143Z,517.00
2023-05-01T10:52:42.238Z,518.00
2023-05-01T10:53:42.179Z,517.00
2023-05-01T10:54:42.194Z,516.00
2023-05-01T10:55:42.222Z,514.00
2023-05-01T10:56:42.252Z,519.00
2023-05-01T10:57:42.275Z,517.00
2023-05-01T10:58:42.271Z,515.00
2023-05-01T10:59:42.330Z,512.00
2023-05-01T11:00:42.351Z,515.00
2023-05-01T11:01:43.099Z,514.00
2023-05-01T11:02:42.358Z,515.00
2023-05-01T11:03:42.372Z,519.00
2023-05-01T11:04:42.371Z,517.00
2023-05-01T11:05:42.456Z,516.00
2023-05-01T11:06:42.578Z,516.00
2023-05-01T11:07:42.424Z,515.00
2023-05-01T11:08:42.762Z,512.00
2023-05-01T11:09:42.470Z,513.00
2023-05-01T11:10:42.464Z,517.00
2023-05-01T11:11:42.475Z,517.00
2023-05-01T11:12:42.497Z,518.00
2023-05-01T11:13:42.518Z,517.00
2023-05-01T11:14:42.531Z,518.00
2023-05-01T11:15:42.551Z,517.00
2023-05-01T11:16:42.711Z,515.00
2023-05-01T11:17:43.006Z,516.00
2023-05-01T11:18:42.585Z,517.00
2023-05-01T11:19:42.621Z,519.00
2023-05-01T11:20:42.623Z,516.00
2023-05-01T11:21:42.654Z,514.00
2023-05-01T11:22:42.681Z,519.00
2023-05-01T11:23:42.681Z,517.00
2023-05-01T11:24:42.702Z,514.00
2023-05-01T11:25:42.796Z,516.00
2023-05-01T11:26:42.745Z,516.00
2023-05-01T11:27:42.826Z,514.00
2023-05-01T11:28:42.787Z,517.00
2023-05-01T11:29:42.804Z,515.00
2023-05-01T11:30:42.825Z,517.00
2023-05-01T11:31:42.852Z,519.00
2023-05-01T11:32:42.925Z,513.00
2023-05-01T11:33:42.869Z,514.00
2023-05-01T11:34:42.897Z,515.00
2023-05-01T11:35:42.924Z,513.00
2023-05-01T11:36:42.938Z,516.00
2023-05-01T11:37:42.969Z,516.00
2023-05-01T11:38:42.978Z,514.00
2023-05-01T11:39:43.007Z,510.00
2023-05-01T11:40:43.020Z,511.00
2023-05-01T11:41:43.081Z,514.00
2023-05-01T11:42:43.058Z,514.00
2023-05-01T11:43:43.101Z,513.00
2023-05-01T11:44:43.093Z,518.00
2023-05-01T11:45:43.214Z,510.00
2023-05-01T11:46:43.128Z,512.00
2023-05-01T11:47:43.177Z,510.00
2023-05-01T11:48:43.155Z,511.00
2023-05-01T11:49:43.173Z,512.00
2023-05-01T11:50:43.188Z,509.00
2023-05-01T11:51:43.205Z,512.00
2023-05-01T11:52:43.218Z,514.00
2023-05-01T11:53:43.291Z,514.00
2023-05-01T11:54:43.274Z,513.00
2023-05-01T11:55:43.253Z,515.00
2023-05-01T11:56:43.287Z,514.00
2023-05-01T11:57:43.298Z,513.00
2023-05-01T11:58:43.323Z,509.00
2023-05-01T11:59:43.998Z,516.00
2023-05-01T12:00:43.402Z,512.00
2023-05-01T12:01:43.387Z,513.00
2023-05-01T12:02:43.459Z,511.00
2023-05-01T12:03:43.544Z,510.00
2023-05-01T12:04:43.457Z,511.00
2023-05-01T12:05:43.442Z,512.00
2023-05-01T12:06:43.530Z,512.00
2023-05-01T12:07:43.478Z,512.00
2023-05-01T12:08:43.518Z,516.00
2023-05-01T12:09:43.524Z,515.00
2023-05-01T12:10:43.825Z,515.00
2023-05-01T12:11:43.559Z,512.00
2023-05-01T12:12:43.582Z,511.00
2023-05-01T12:13:43.604Z,512.00
2023-05-01T12:14:43.615Z,513.00
2023-05-01T12:15:43.660Z,513.00
2023-05-01T12:16:43.703Z,514.00
2023-05-01T12:17:43.713Z,514.00
2023-05-01T12:18:43.726Z,513.00
2023-05-01T12:19:43.731Z,511.00
2023-05-01T12:20:43.754Z,515.00
2023-05-01T12:21:43.803Z,514.00
2023-05-01T12:22:43.803Z,516.00
2023-05-01T12:23:43.823Z,512.00
2023-05-01T12:24:43.878Z,512.00
2023-05-01T12:25:43.882Z,514.00
2023-05-01T12:26:43.900Z,514.00
2023-05-01T12:27:43.925Z,513.00
2023-05-01T12:28:43.948Z,515.00